createdAt,value
2019-05-21T00:01:01.125Z,31.30
2019-05-21T00:02:02.161Z,30.02
2019-05-21T00:03:03.313Z,30.70
2019-05-21T00:04:04.486Z,22.17
2019-05-21T00:05:05.824Z,32.48
2019-05-21T00:06:06.839Z,29.25
2019-05-21T00:07:07.855Z,26.87
2019-05-21T00:08:09.239Z,27.58
2019-05-21T00:09:10.388Z,20.82
2019-05-21T00:10:31.333Z,19.80
2019-05-21T00:11:32.348Z,19.85
2019-05-21T00:12:33.498Z,24.10
2019-05-21T00:13:34.577Z,26.55
2019-05-21T00:14:35.709Z,22.82
2019-05-21T00:15:36.725Z,32.13
2019-05-21T00:16:37.853Z,26.87
2019-05-21T00:17:38.943Z,27.52
2019-05-21T00:18:39.987Z,35.73
2019-05-21T00:19:40.991Z,25.82
2019-05-21T00:20:42.035Z,28.62
2019-05-21T00:21:43.183Z,24.72
2019-05-21T00:22:44.180Z,26.52
2019-05-21T00:23:45.192Z,36.15
2019-05-21T00:24:46.277Z,23.00
2019-05-21T00:25:47.348Z,29.55
2019-05-21T00:26:48.363Z,25.72
2019-05-21T00:27:49.384Z,36.28
2019-05-21T00:29:27.808Z,24.07
2019-05-21T00:31:06.473Z,28.35
2019-05-21T00:32:45.212Z,28.98
2019-05-21T00:34:24.151Z,25.37
2019-05-21T00:36:02.487Z,29.27
2019-05-21T00:37:40.992Z,28.80
2019-05-21T00:39:19.868Z,35.70
2019-05-21T00:40:58.618Z,41.70
2019-05-21T00:42:05.661Z,24.85
2019-05-21T00:43:08.176Z,33.40
2019-05-21T00:44:09.241Z,41.18
2019-05-21T00:45:11.550Z,35.45
2019-05-21T00:46:12.565Z,36.35
2019-05-21T00:47:13.584Z,39.70
2019-05-21T00:48:14.604Z,28.50
2019-05-21T00:49:16.528Z,51.25
2019-05-21T00:50:17.634Z,46.10
2019-05-21T00:51:18.652Z,39.67
2019-05-21T00:52:19.684Z,42.27
2019-05-21T00:53:20.704Z,41.10
2019-05-21T00:54:21.736Z,40.88
2019-05-21T00:55:22.752Z,40.90
2019-05-21T00:56:23.790Z,34.10
2019-05-21T00:57:24.814Z,33.28
2019-05-21T00:58:25.828Z,36.38
2019-05-21T00:59:26.847Z,40.55
2019-05-21T01:00:27.867Z,49.25
2019-05-21T01:01:28.887Z,40.67
2019-05-21T01:02:29.893Z,45.52
2019-05-21T01:03:30.913Z,48.08
2019-05-21T01:04:31.932Z,33.10
2019-05-21T01:05:33.048Z,44.53
2019-05-21T01:06:34.054Z,39.35
2019-05-21T01:07:35.068Z,42.17
2019-05-21T01:08:36.073Z,35.95
2019-05-21T01:09:37.096Z,42.17
2019-05-21T01:10:38.109Z,51.23
2019-05-21T01:11:39.169Z,38.38
2019-05-21T01:12:40.244Z,39.48
2019-05-21T01:13:41.271Z,48.20
2019-05-21T01:14:42.353Z,29.55
2019-05-21T01:15:43.368Z,45.60
2019-05-21T01:16:44.389Z,33.92
2019-05-21T01:17:45.408Z,43.28
2019-05-21T01:18:46.660Z,37.45
2019-05-21T01:19:47.683Z,40.00
2019-05-21T01:20:48.959Z,44.63
2019-05-21T01:21:49.981Z,37.78
2019-05-21T01:22:50.997Z,35.65
2019-05-21T01:23:52.041Z,33.38
2019-05-21T01:24:53.061Z,48.98
2019-05-21T01:25:54.076Z,36.73
2019-05-21T01:26:55.096Z,34.00
2019-05-21T01:27:56.117Z,29.45
2019-05-21T01:28:57.125Z,39.60
2019-05-21T01:29:58.178Z,33.33
2019-05-21T01:30:59.196Z,36.03
2019-05-21T01:32:00.224Z,29.98
2019-05-21T01:33:01.228Z,29.92
2019-05-21T01:34:02.443Z,31.05
2019-05-21T01:35:16.637Z,27.10
2019-05-21T01:36:07.793Z,36.25
2019-05-21T01:37:08.808Z,28.07
2019-05-21T01:38:09.827Z,34.43
2019-05-21T01:39:10.838Z,35.52
2019-05-21T01:40:11.867Z,35.83
2019-05-21T01:41:12.970Z,29.32
2019-05-21T01:42:13.968Z,30.27
2019-05-21T01:43:14.989Z,32.08
2019-05-21T01:44:16.016Z,31.25
2019-05-21T01:45:17.032Z,32.88
2019-05-21T01:46:18.044Z,37.73
2019-05-21T01:47:19.053Z,28.32
2019-05-21T01:48:20.076Z,35.63
2019-05-21T01:49:21.084Z,30.23
2019-05-21T01:50:22.123Z,37.00
2019-05-21T01:51:23.140Z,34.05
2019-05-21T01:52:24.166Z,35.33
2019-05-21T01:53:25.172Z,31.65
2019-05-21T01:54:26.200Z,26.02
2019-05-21T01:55:27.233Z,26.05
2019-05-21T01:56:28.248Z,32.28
2019-05-21T01:57:29.251Z,29.15
2019-05-21T01:58:30.264Z,32.50
2019-05-21T01:59:31.285Z,27.42
2019-05-21T02:00:32.413Z,27.05
2019-05-21T02:01:33.428Z,32.93
2019-05-21T02:02:34.448Z,26.77
2019-05-21T02:03:35.456Z,31.50
2019-05-21T02:04:36.868Z,33.75
2019-05-21T02:05:37.887Z,27.40
2019-05-21T02:06:38.901Z,24.30
2019-05-21T02:07:39.921Z,27.17
2019-05-21T02:08:40.941Z,26.25
2019-05-21T02:09:57.104Z,20.65
2019-05-21T02:10:58.265Z,32.00
2019-05-21T02:11:59.332Z,20.72
2019-05-21T02:13:00.360Z,31.55
2019-05-21T02:14:01.374Z,28.40
2019-05-21T02:15:03.784Z,26.40
2019-05-21T02:16:04.804Z,28.98
2019-05-21T02:17:05.823Z,29.07
2019-05-21T02:18:06.832Z,30.92
2019-05-21T02:19:07.849Z,23.65
2019-05-21T02:20:09.284Z,21.65
2019-05-21T02:21:10.401Z,22.52
2019-05-21T02:22:11.408Z,23.52
2019-05-21T02:23:12.429Z,31.17
2019-05-21T02:24:13.441Z,27.62
2019-05-21T02:25:14.652Z,33.67
2019-05-21T02:26:15.680Z,19.48
2019-05-21T02:27:16.692Z,25.10
2019-05-21T02:28:17.712Z,22.20
2019-05-21T02:29:18.724Z,25.75
2019-05-21T02:30:20.140Z,19.27
2019-05-21T02:31:21.170Z,22.15
2019-05-21T02:32:22.183Z,25.40
2019-05-21T02:33:23.188Z,23.15
2019-05-21T02:34:24.208Z,20.90
2019-05-21T02:35:25.218Z,30.02
2019-05-21T02:36:26.244Z,21.40
2019-05-21T02:37:27.352Z,32.63
2019-05-21T02:38:28.360Z,24.43
2019-05-21T02:39:29.381Z,24.75
2019-05-21T02:40:30.662Z,22.82
2019-05-21T02:41:31.899Z,19.52
2019-05-21T02:42:32.997Z,17.20
2019-05-21T02:43:34.109Z,24.55
2019-05-21T02:44:35.113Z,24.50
2019-05-21T02:45:36.131Z,22.87
2019-05-21T02:46:37.452Z,30.48
2019-05-21T02:47:38.465Z,19.15
2019-05-21T02:48:39.531Z,20.62
2019-05-21T02:49:40.550Z,19.10
2019-05-21T02:50:41.560Z,21.70
2019-05-21T02:51:42.609Z,21.50
2019-05-21T02:52:43.630Z,18.17
2019-05-21T02:53:44.646Z,20.88
2019-05-21T02:54:45.658Z,31.60
2019-05-21T02:55:46.773Z,18.67
2019-05-21T02:56:47.798Z,18.65
2019-05-21T02:57:48.817Z,24.12
2019-05-21T02:58:49.825Z,23.67
2019-05-21T02:59:53.743Z,23.25
2019-05-21T03:00:56.660Z,18.15
2019-05-21T03:01:59.597Z,17.60
2019-05-21T03:03:02.505Z,25.15
2019-05-21T03:04:03.532Z,18.98
2019-05-21T03:05:05.437Z,19.95
2019-05-21T03:06:13.630Z,18.75
2019-05-21T03:07:18.313Z,13.28
2019-05-21T03:08:19.416Z,19.42
2019-05-21T03:09:20.730Z,20.72
2019-05-21T03:10:21.983Z,22.93
2019-05-21T03:11:22.985Z,17.40
2019-05-21T03:12:24.009Z,20.75
2019-05-21T03:13:25.037Z,18.55
2019-05-21T03:14:26.064Z,19.70
2019-05-21T03:15:27.079Z,19.92
2019-05-21T03:16:28.103Z,17.40
2019-05-21T03:17:29.472Z,28.62
2019-05-21T03:18:30.481Z,26.45
2019-05-21T03:19:31.494Z,22.75
2019-05-21T03:20:32.496Z,22.52
2019-05-21T03:21:33.507Z,22.65
2019-05-21T03:22:34.529Z,22.30
2019-05-21T03:23:35.543Z,19.20
2019-05-21T03:24:36.547Z,24.45
2019-05-21T03:25:37.561Z,21.02
2019-05-21T03:26:38.577Z,20.88
2019-05-21T03:27:39.598Z,21.17
2019-05-21T03:28:40.607Z,22.25
2019-05-21T03:29:41.633Z,21.10
2019-05-21T03:30:42.697Z,22.30
2019-05-21T03:31:43.699Z,20.68
2019-05-21T03:32:44.739Z,20.50
2019-05-21T03:33:45.746Z,18.60
2019-05-21T03:34:46.766Z,24.02
2019-05-21T03:35:47.813Z,24.60
2019-05-21T03:36:48.927Z,27.10
2019-05-21T03:37:49.944Z,20.75
2019-05-21T03:38:50.961Z,28.45
2019-05-21T03:39:51.973Z,23.40
2019-05-21T03:40:52.985Z,22.05
2019-05-21T03:41:54.177Z,22.70
2019-05-21T03:42:55.197Z,27.98
2019-05-21T03:43:56.204Z,23.55
2019-05-21T03:45:00.413Z,28.15
2019-05-21T03:46:00.269Z,27.00
2019-05-21T03:47:01.409Z,35.25
2019-05-21T03:48:02.601Z,15.60
2019-05-21T03:49:03.645Z,21.07
2019-05-21T03:50:05.113Z,19.07
2019-05-21T03:51:06.243Z,24.10
2019-05-21T03:52:07.265Z,20.57
2019-05-21T03:53:08.300Z,26.62
2019-05-21T03:54:09.317Z,20.02
2019-05-21T03:55:10.336Z,19.57
2019-05-21T03:56:11.605Z,20.77
2019-05-21T03:57:12.677Z,17.23
2019-05-21T03:58:13.681Z,16.12
2019-05-21T03:59:14.706Z,18.07
2019-05-21T04:00:16.532Z,20.32
2019-05-21T04:01:17.565Z,26.95
2019-05-21T04:02:18.601Z,24.70
2019-05-21T04:03:19.617Z,27.25
2019-05-21T04:04:20.624Z,19.50
2019-05-21T04:05:23.348Z,16.25
2019-05-21T04:06:28.558Z,25.20
2019-05-21T04:07:27.383Z,22.58
2019-05-21T04:08:28.399Z,22.52
2019-05-21T04:09:29.413Z,22.30
2019-05-21T04:10:30.432Z,25.10
2019-05-21T04:11:31.462Z,20.77
2019-05-21T04:12:32.482Z,18.77
2019-05-21T04:13:33.516Z,26.07
2019-05-21T04:14:36.428Z,21.23
2019-05-21T04:15:47.624Z,21.50
2019-05-21T04:16:56.789Z,19.75
2019-05-21T04:18:02.394Z,19.55
2019-05-21T04:19:10.969Z,15.08
2019-05-21T04:20:11.994Z,21.00
2019-05-21T04:21:13.069Z,19.85
2019-05-21T04:22:15.187Z,21.85
2019-05-21T04:23:16.213Z,17.80
2019-05-21T04:24:17.225Z,16.82
2019-05-21T04:25:18.741Z,27.50
2019-05-21T04:26:19.761Z,20.27
2019-05-21T04:27:20.821Z,21.25
2019-05-21T04:28:21.849Z,21.05
2019-05-21T04:29:22.878Z,16.75
2019-05-21T04:30:23.913Z,15.70
2019-05-21T04:31:24.941Z,18.42
2019-05-21T04:32:25.981Z,21.75
2019-05-21T04:33:27.013Z,18.42
2019-05-21T04:34:28.033Z,22.67
2019-05-21T04:35:29.041Z,21.57
2019-05-21T04:36:30.058Z,21.37
2019-05-21T04:37:31.064Z,16.37
2019-05-21T04:38:32.091Z,19.25
2019-05-21T04:39:33.104Z,19.85
2019-05-21T04:40:34.123Z,20.12
2019-05-21T04:41:35.225Z,17.65
2019-05-21T04:42:36.237Z,17.80
2019-05-21T04:43:37.281Z,26.35
2019-05-21T04:44:38.297Z,23.57
2019-05-21T04:45:39.307Z,19.52
2019-05-21T04:46:40.341Z,20.52
2019-05-21T04:47:41.540Z,21.07
2019-05-21T04:48:42.570Z,24.00
2019-05-21T04:49:43.583Z,20.62
2019-05-21T04:50:44.596Z,19.45
2019-05-21T04:51:45.722Z,17.67
2019-05-21T04:52:46.747Z,34.67
2019-05-21T04:53:47.855Z,20.55
2019-05-21T04:54:48.868Z,19.67
2019-05-21T04:55:49.880Z,17.02
2019-05-21T04:56:50.901Z,20.90
2019-05-21T04:57:51.907Z,20.55
2019-05-21T04:58:52.936Z,17.23
2019-05-21T04:59:53.954Z,23.50
2019-05-21T05:00:54.996Z,18.35
2019-05-21T05:01:56.094Z,15.58
2019-05-21T05:02:57.104Z,21.60
2019-05-21T05:03:58.144Z,16.48
2019-05-21T05:04:59.161Z,19.50
2019-05-21T05:06:00.439Z,16.70
2019-05-21T05:07:01.448Z,20.80
2019-05-21T05:08:02.472Z,17.27
2019-05-21T05:09:04.699Z,14.55
2019-05-21T05:10:06.676Z,14.23
2019-05-21T05:11:07.689Z,22.75
2019-05-21T05:12:08.704Z,13.60
2019-05-21T05:13:09.716Z,21.07
2019-05-21T05:14:10.738Z,13.62
2019-05-21T05:15:11.850Z,14.25
2019-05-21T05:16:12.848Z,16.37
2019-05-21T05:17:13.870Z,17.87
2019-05-21T05:18:14.976Z,13.95
2019-05-21T05:19:16.001Z,20.35
2019-05-21T05:20:17.025Z,18.05
2019-05-21T05:21:18.039Z,12.10
2019-05-21T05:22:19.048Z,16.40
2019-05-21T05:23:20.060Z,17.23
2019-05-21T05:24:21.097Z,18.07
2019-05-21T05:25:22.105Z,12.00
2019-05-21T05:26:23.113Z,15.68
2019-05-21T05:27:24.126Z,15.55
2019-05-21T05:28:25.136Z,14.98
2019-05-21T05:29:26.165Z,19.17
2019-05-21T05:30:27.206Z,14.70
2019-05-21T05:31:28.224Z,20.35
2019-05-21T05:32:29.254Z,14.35
2019-05-21T05:33:30.280Z,16.75
2019-05-21T05:34:31.355Z,18.52
2019-05-21T05:35:32.432Z,12.30
2019-05-21T05:36:33.450Z,13.08
2019-05-21T05:37:43.221Z,12.37
2019-05-21T05:38:37.379Z,15.10
2019-05-21T05:39:38.393Z,11.70
2019-05-21T05:40:39.404Z,12.30
2019-05-21T05:41:40.426Z,13.53
2019-05-21T05:42:41.432Z,12.05
2019-05-21T05:43:42.459Z,12.40
2019-05-21T05:44:43.468Z,12.63
2019-05-21T05:45:44.480Z,12.98
2019-05-21T05:46:45.494Z,14.73
2019-05-21T05:47:46.516Z,10.28
2019-05-21T05:48:49.460Z,14.40
2019-05-21T05:49:52.665Z,15.90
2019-05-21T05:51:04.624Z,12.75
2019-05-21T05:52:05.678Z,15.90
2019-05-21T05:53:06.787Z,15.18
2019-05-21T05:54:07.892Z,15.68
2019-05-21T05:55:09.025Z,14.95
2019-05-21T05:56:10.046Z,14.20
2019-05-21T05:57:11.056Z,11.85
2019-05-21T05:58:12.073Z,13.40
2019-05-21T05:59:14.499Z,11.20
2019-05-21T06:00:16.983Z,11.60
2019-05-21T06:01:17.990Z,13.18
2019-05-21T06:02:19.141Z,10.68
2019-05-21T06:03:20.161Z,11.40
2019-05-21T06:04:21.184Z,10.95
2019-05-21T06:05:22.445Z,10.40
2019-05-21T06:06:23.473Z,10.70
2019-05-21T06:07:24.480Z,11.73
2019-05-21T06:08:25.489Z,13.68
2019-05-21T06:09:26.521Z,11.45
2019-05-21T06:10:27.541Z,9.20
2019-05-21T06:11:28.552Z,11.22
2019-05-21T06:12:29.564Z,11.08
2019-05-21T06:13:30.592Z,12.07
2019-05-21T06:14:31.711Z,8.83
2019-05-21T06:15:32.732Z,8.80
2019-05-21T06:16:33.746Z,8.65
2019-05-21T06:17:34.788Z,9.38
2019-05-21T06:18:35.905Z,9.13
2019-05-21T06:19:36.952Z,17.77
2019-05-21T06:20:37.977Z,8.85
2019-05-21T06:21:38.995Z,10.48
2019-05-21T06:22:40.019Z,7.97
2019-05-21T06:23:41.025Z,9.65
2019-05-21T06:24:42.385Z,9.28
2019-05-21T06:25:43.425Z,8.38
2019-05-21T06:26:44.442Z,10.20
2019-05-21T06:27:45.460Z,8.03
2019-05-21T06:28:46.476Z,9.65
2019-05-21T06:29:47.496Z,12.63
2019-05-21T06:30:48.528Z,10.35
2019-05-21T06:31:49.555Z,9.25
2019-05-21T06:32:50.568Z,7.65
2019-05-21T06:33:51.615Z,9.05
2019-05-21T06:34:52.725Z,7.20
2019-05-21T06:35:53.728Z,8.55
2019-05-21T06:36:54.753Z,8.00
2019-05-21T06:37:55.761Z,8.20
2019-05-21T06:38:56.771Z,7.42
2019-05-21T06:39:57.796Z,8.40
2019-05-21T06:40:58.808Z,8.43
2019-05-21T06:41:59.837Z,9.50
2019-05-21T06:43:00.851Z,9.00
2019-05-21T06:44:02.071Z,8.78
2019-05-21T06:45:07.001Z,10.03
2019-05-21T06:46:07.996Z,9.55
2019-05-21T06:47:09.024Z,10.78
2019-05-21T06:48:10.084Z,9.43
2019-05-21T06:49:11.188Z,8.33
2019-05-21T06:50:12.528Z,8.78
2019-05-21T06:51:13.556Z,8.43
2019-05-21T06:52:14.568Z,7.55
2019-05-21T06:53:15.600Z,8.85
2019-05-21T06:54:16.624Z,8.58
2019-05-21T06:55:17.633Z,7.40
2019-05-21T06:56:18.640Z,10.30
2019-05-21T06:57:19.661Z,9.30
2019-05-21T06:58:20.772Z,7.40
2019-05-21T06:59:21.794Z,11.15
2019-05-21T07:00:22.924Z,7.28
2019-05-21T07:01:28.590Z,9.38
2019-05-21T07:02:26.948Z,9.85
2019-05-21T07:03:27.966Z,9.20
2019-05-21T07:04:29.002Z,7.20
2019-05-21T07:05:30.083Z,9.20
2019-05-21T07:06:31.084Z,10.40
2019-05-21T07:07:32.150Z,7.40
2019-05-21T07:08:35.075Z,7.45
2019-05-21T07:09:36.101Z,9.55
2019-05-21T07:10:37.168Z,8.70
2019-05-21T07:11:38.182Z,9.23
2019-05-21T07:12:39.213Z,7.28
2019-05-21T07:13:40.259Z,8.88
2019-05-21T07:14:41.273Z,9.85
2019-05-21T07:15:42.361Z,8.03
2019-05-21T07:16:43.456Z,7.62
2019-05-21T07:17:44.467Z,8.20
2019-05-21T07:18:45.476Z,9.23
2019-05-21T07:19:46.500Z,8.75
2019-05-21T07:20:47.563Z,9.30
2019-05-21T07:21:48.663Z,9.50
2019-05-21T07:22:49.822Z,7.50
2019-05-21T07:23:50.967Z,8.00
2019-05-21T07:24:52.014Z,7.97
2019-05-21T07:25:53.133Z,8.70
2019-05-21T07:26:54.483Z,8.13
2019-05-21T07:27:55.589Z,7.22
2019-05-21T07:28:57.042Z,7.25
2019-05-21T07:29:58.723Z,8.08
2019-05-21T07:30:59.961Z,7.58
2019-05-21T07:32:01.064Z,11.25
2019-05-21T07:33:02.328Z,8.45
2019-05-21T07:34:03.732Z,8.03
2019-05-21T07:35:05.075Z,7.92
2019-05-21T07:36:06.092Z,9.73
2019-05-21T07:37:07.402Z,9.38
2019-05-21T07:38:08.563Z,8.60
2019-05-21T07:39:09.681Z,9.20
2019-05-21T07:40:11.940Z,8.15
2019-05-21T07:41:13.277Z,9.70
2019-05-21T07:42:14.312Z,7.22
2019-05-21T07:43:15.354Z,9.35
2019-05-21T07:44:16.457Z,9.65
2019-05-21T07:45:17.492Z,7.97
2019-05-21T07:46:18.517Z,10.65
2019-05-21T07:47:19.716Z,7.00
2019-05-21T07:48:21.065Z,10.05
2019-05-21T07:49:22.412Z,9.10
2019-05-21T07:50:23.552Z,8.63
2019-05-21T07:51:24.878Z,8.05
2019-05-21T07:52:25.901Z,7.95
2019-05-21T07:53:26.932Z,9.53
2019-05-21T07:54:28.284Z,12.07
2019-05-21T07:55:29.409Z,11.18
2019-05-21T07:56:30.421Z,8.98
2019-05-21T07:57:31.430Z,8.63
2019-05-21T07:58:32.444Z,7.25
2019-05-21T07:59:33.464Z,7.47
2019-05-21T08:00:34.510Z,8.25
2019-05-21T08:01:35.529Z,8.28
2019-05-21T08:02:36.533Z,9.95
2019-05-21T08:03:37.575Z,7.95
2019-05-21T08:04:38.580Z,8.05
2019-05-21T08:05:39.638Z,7.28
2019-05-21T08:06:40.743Z,7.65
2019-05-21T08:07:41.779Z,9.50
2019-05-21T08:08:42.801Z,10.03
2019-05-21T08:09:43.801Z,7.30
2019-05-21T08:10:44.832Z,10.35
2019-05-21T08:11:47.013Z,7.62
2019-05-21T08:12:48.589Z,8.40
2019-05-21T08:13:49.601Z,8.23
2019-05-21T08:14:50.680Z,7.28
2019-05-21T08:15:51.838Z,8.23
2019-05-21T08:16:52.856Z,7.70
2019-05-21T08:17:53.880Z,8.58
2019-05-21T08:18:55.228Z,7.67
2019-05-21T08:20:08.131Z,9.08
2019-05-21T08:20:59.167Z,8.35
2019-05-21T08:22:00.186Z,6.92
2019-05-21T08:23:01.213Z,8.53
2019-05-21T08:24:02.383Z,9.63
2019-05-21T08:25:05.460Z,9.48
2019-05-21T08:26:06.499Z,8.70
2019-05-21T08:27:07.538Z,8.70
2019-05-21T08:28:08.724Z,8.20
2019-05-21T08:29:11.036Z,9.58
2019-05-21T08:30:13.717Z,9.85
2019-05-21T08:31:14.745Z,8.03
2019-05-21T08:32:15.785Z,8.28
2019-05-21T08:33:16.826Z,8.85
2019-05-21T08:34:17.861Z,7.17
2019-05-21T08:35:19.177Z,7.60
2019-05-21T08:36:20.184Z,7.20
2019-05-21T08:37:21.208Z,9.03
2019-05-21T08:38:22.220Z,8.08
2019-05-21T08:39:28.947Z,7.67
2019-05-21T08:40:26.436Z,8.33
2019-05-21T08:41:27.442Z,7.55
2019-05-21T08:42:28.554Z,10.50
2019-05-21T08:43:29.576Z,9.15
2019-05-21T08:44:30.635Z,8.23
2019-05-21T08:45:31.640Z,8.10
2019-05-21T08:46:32.680Z,8.63
2019-05-21T08:47:33.731Z,8.28
2019-05-21T08:48:34.749Z,8.20
2019-05-21T08:49:35.915Z,7.60
2019-05-21T08:50:37.088Z,9.83
2019-05-21T08:51:38.117Z,8.10
2019-05-21T08:52:39.253Z,10.58
2019-05-21T08:53:40.349Z,9.25
2019-05-21T08:54:50.699Z,11.05
2019-05-21T08:55:51.904Z,8.38
2019-05-21T08:56:52.921Z,9.83
2019-05-21T08:58:06.641Z,9.10
2019-05-21T08:58:56.856Z,8.75
2019-05-21T08:59:57.883Z,7.62
2019-05-21T09:00:59.051Z,10.23
2019-05-21T09:02:00.136Z,8.15
2019-05-21T09:03:01.249Z,8.53
2019-05-21T09:04:02.581Z,8.68
2019-05-21T09:05:05.397Z,10.45
2019-05-21T09:06:06.422Z,8.13
2019-05-21T09:07:07.582Z,8.98
2019-05-21T09:08:08.608Z,8.45
2019-05-21T09:09:09.954Z,10.48
2019-05-21T09:10:11.966Z,7.50
2019-05-21T09:11:12.966Z,8.65
2019-05-21T09:12:14.120Z,9.73
2019-05-21T09:13:17.902Z,7.65
2019-05-21T09:14:18.367Z,8.25
2019-05-21T09:15:19.794Z,7.95
2019-05-21T09:16:20.824Z,9.50
2019-05-21T09:17:21.912Z,8.05
2019-05-21T09:18:22.982Z,10.20
2019-05-21T09:19:24.022Z,9.30
2019-05-21T09:20:25.261Z,9.38
2019-05-21T09:21:26.396Z,16.07
2019-05-21T09:22:27.499Z,9.00
2019-05-21T09:23:28.570Z,9.43
2019-05-21T09:24:29.674Z,9.48
2019-05-21T09:25:30.681Z,11.25
2019-05-21T09:26:31.693Z,9.40
2019-05-21T09:27:33.712Z,9.93
2019-05-21T09:28:34.740Z,9.18
2019-05-21T09:29:35.756Z,8.38
2019-05-21T09:30:36.782Z,9.65
2019-05-21T09:31:37.917Z,9.43
2019-05-21T09:32:38.941Z,8.35
2019-05-21T09:33:39.949Z,8.53
2019-05-21T09:34:48.796Z,9.63
2019-05-21T09:35:44.388Z,10.20
2019-05-21T09:36:45.474Z,8.35
2019-05-21T09:37:46.546Z,8.40
2019-05-21T09:38:47.561Z,17.20
2019-05-21T09:39:48.576Z,10.45
2019-05-21T09:40:50.017Z,11.22
2019-05-21T09:41:51.029Z,8.48
2019-05-21T09:42:52.157Z,8.40
2019-05-21T09:43:53.435Z,7.78
2019-05-21T09:44:54.578Z,8.80
2019-05-21T09:45:55.607Z,10.45
2019-05-21T09:46:56.625Z,7.97
2019-05-21T09:47:57.648Z,18.00
2019-05-21T09:48:58.681Z,8.45
2019-05-21T09:49:59.735Z,10.40
2019-05-21T09:51:00.836Z,7.83
2019-05-21T09:52:01.976Z,9.63
2019-05-21T09:53:03.186Z,9.35
2019-05-21T09:54:04.193Z,7.75
2019-05-21T09:55:06.108Z,9.70
2019-05-21T09:56:25.692Z,9.10
2019-05-21T09:57:32.564Z,9.98
2019-05-21T09:58:35.496Z,8.45
2019-05-21T09:59:53.608Z,8.28
2019-05-21T10:01:08.875Z,7.65
2019-05-21T10:02:11.776Z,8.98
2019-05-21T10:03:17.253Z,11.30
2019-05-21T10:04:18.270Z,8.48
2019-05-21T10:05:19.386Z,8.73
2019-05-21T10:06:20.724Z,14.15
2019-05-21T10:07:37.935Z,9.35
2019-05-21T10:08:24.656Z,7.90
2019-05-21T10:09:25.674Z,9.53
2019-05-21T10:10:26.800Z,9.58
2019-05-21T10:11:28.132Z,11.65
2019-05-21T10:12:29.160Z,10.35
2019-05-21T10:13:30.196Z,9.48
2019-05-21T10:14:34.137Z,9.88
2019-05-21T10:15:34.176Z,8.85
2019-05-21T10:16:35.386Z,9.13
2019-05-21T10:17:36.648Z,9.10
2019-05-21T10:18:44.059Z,8.23
2019-05-21T10:19:45.276Z,8.05
2019-05-21T10:21:49.092Z,11.70
2019-05-21T10:22:50.103Z,12.00
2019-05-21T10:23:51.210Z,13.38
2019-05-21T10:24:52.326Z,9.80
2019-05-21T10:25:53.341Z,8.75
2019-05-21T10:26:54.387Z,9.60
2019-05-21T10:27:55.404Z,10.30
2019-05-21T10:28:56.533Z,10.63
2019-05-21T10:29:57.585Z,11.20
2019-05-21T10:30:58.640Z,9.70
2019-05-21T10:31:59.671Z,15.60
2019-05-21T10:33:00.701Z,10.00
2019-05-21T10:34:01.719Z,9.13
2019-05-21T10:35:05.307Z,8.60
2019-05-21T10:36:06.743Z,9.93
2019-05-21T10:37:07.764Z,10.25
2019-05-21T10:38:08.897Z,8.23
2019-05-21T10:39:10.258Z,10.75
2019-05-21T10:40:11.911Z,8.83
2019-05-21T10:41:13.055Z,11.48
2019-05-21T10:42:14.150Z,8.90
2019-05-21T10:43:15.315Z,9.05
2019-05-21T10:44:16.476Z,12.70
2019-05-21T10:45:17.602Z,12.43
2019-05-21T10:46:18.612Z,11.48
2019-05-21T10:47:19.639Z,11.70
2019-05-21T10:48:20.680Z,10.25
2019-05-21T10:49:21.722Z,10.35
2019-05-21T10:50:22.743Z,12.00
2019-05-21T10:51:23.857Z,8.00
2019-05-21T10:52:24.872Z,12.10
2019-05-21T10:53:25.997Z,10.43
2019-05-21T10:54:27.018Z,11.08
2019-05-21T10:55:28.027Z,10.18
2019-05-21T10:56:38.554Z,8.88
2019-05-21T10:57:31.962Z,9.95
2019-05-21T10:58:32.968Z,10.28
2019-05-21T10:59:34.110Z,7.95
2019-05-21T11:00:35.099Z,7.87
2019-05-21T11:01:40.843Z,10.63
2019-05-21T11:02:43.821Z,9.50
2019-05-21T11:04:01.856Z,11.55
2019-05-21T11:05:13.313Z,11.35
2019-05-21T11:06:15.575Z,9.45
2019-05-21T11:07:17.844Z,8.45
2019-05-21T11:08:23.832Z,10.70
2019-05-21T11:09:22.483Z,9.30
2019-05-21T11:10:23.489Z,9.88
2019-05-21T11:11:24.504Z,12.55
2019-05-21T11:12:25.529Z,9.40
2019-05-21T11:13:26.559Z,9.35
2019-05-21T11:14:27.686Z,9.73
2019-05-21T11:15:28.805Z,10.85
2019-05-21T11:16:29.809Z,10.70
2019-05-21T11:17:30.824Z,10.55
2019-05-21T11:18:31.837Z,9.75
2019-05-21T11:19:33.074Z,11.20
2019-05-21T11:20:34.090Z,9.35
2019-05-21T11:21:35.105Z,9.60
2019-05-21T11:22:36.122Z,13.35
2019-05-21T11:23:37.164Z,10.30
2019-05-21T11:24:38.185Z,10.43
2019-05-21T11:25:39.200Z,11.80
2019-05-21T11:26:40.237Z,10.00
2019-05-21T11:27:41.248Z,9.60
2019-05-21T11:28:42.361Z,10.18
2019-05-21T11:29:43.380Z,8.50
2019-05-21T11:30:44.401Z,13.35
2019-05-21T11:31:56.566Z,11.63
2019-05-21T11:32:48.336Z,11.03
2019-05-21T11:33:49.354Z,9.48
2019-05-21T11:34:50.733Z,10.30
2019-05-21T11:35:51.887Z,9.05
2019-05-21T11:36:52.975Z,12.07
2019-05-21T11:37:54.058Z,11.60
2019-05-21T11:38:55.074Z,9.05
2019-05-21T11:39:56.167Z,12.15
2019-05-21T11:40:57.315Z,10.25
2019-05-21T11:41:58.395Z,11.00
2019-05-21T11:42:59.412Z,9.65
2019-05-21T11:44:00.429Z,9.80
2019-05-21T11:45:02.253Z,9.98
2019-05-21T11:46:03.414Z,8.48
2019-05-21T11:47:04.488Z,11.10
2019-05-21T11:48:05.610Z,10.82
2019-05-21T11:49:06.871Z,12.18
2019-05-21T11:50:08.799Z,11.15
2019-05-21T11:51:12.683Z,10.50
2019-05-21T11:52:12.719Z,10.30
2019-05-21T11:53:13.741Z,21.20
2019-05-21T11:54:14.747Z,10.18
2019-05-21T11:55:15.788Z,10.15
2019-05-21T11:56:16.803Z,12.00
2019-05-21T11:57:17.854Z,14.75
2019-05-21T11:58:19.109Z,9.78
2019-05-21T11:59:20.754Z,8.88
2019-05-21T12:00:23.749Z,11.75
2019-05-21T12:01:24.775Z,11.10
2019-05-21T12:02:25.790Z,11.95
2019-05-21T12:03:26.888Z,11.28
2019-05-21T12:04:27.898Z,10.90
2019-05-21T12:05:29.026Z,11.30
2019-05-21T12:06:30.033Z,10.43
2019-05-21T12:07:31.052Z,9.48
2019-05-21T12:08:32.066Z,10.75
2019-05-21T12:09:33.173Z,12.18
2019-05-21T12:10:34.193Z,12.40
2019-05-21T12:11:35.324Z,8.80
2019-05-21T12:12:36.427Z,12.85
2019-05-21T12:13:37.442Z,9.93
2019-05-21T12:14:38.453Z,9.75
2019-05-21T12:15:39.482Z,8.80
2019-05-21T12:16:40.509Z,9.90
2019-05-21T12:17:41.525Z,9.28
2019-05-21T12:18:42.549Z,8.55
2019-05-21T12:19:43.557Z,8.78
2019-05-21T12:20:44.681Z,10.45
2019-05-21T12:21:45.694Z,7.83
2019-05-21T12:22:46.721Z,12.40
2019-05-21T12:23:48.087Z,11.30
2019-05-21T12:24:51.015Z,10.40
2019-05-21T12:25:52.034Z,9.83
2019-05-21T12:26:53.487Z,10.00
2019-05-21T12:27:54.590Z,10.20
2019-05-21T12:28:55.727Z,10.98
2019-05-21T12:29:56.740Z,10.93
2019-05-21T12:30:59.824Z,11.65
2019-05-21T12:32:02.975Z,8.25
2019-05-21T12:33:04.226Z,10.30
2019-05-21T12:34:05.250Z,11.12
2019-05-21T12:35:06.428Z,8.78
2019-05-21T12:36:07.643Z,8.98
2019-05-21T12:37:08.667Z,10.28
2019-05-21T12:38:09.949Z,11.08
2019-05-21T12:39:14.453Z,9.33
2019-05-21T12:40:14.597Z,9.43
2019-05-21T12:41:15.885Z,9.35
2019-05-21T12:42:17.946Z,10.25
2019-05-21T12:43:20.261Z,10.40
2019-05-21T12:44:24.295Z,9.85
2019-05-21T12:45:25.440Z,9.90
2019-05-21T12:46:26.534Z,12.20
2019-05-21T12:47:27.543Z,8.35
2019-05-21T12:48:28.582Z,10.05
2019-05-21T12:49:29.605Z,8.85
2019-05-21T12:50:30.670Z,9.25
2019-05-21T12:51:31.676Z,11.85
2019-05-21T12:52:33.952Z,11.35
2019-05-21T12:53:35.214Z,9.68
2019-05-21T12:54:36.307Z,8.93
2019-05-21T12:55:37.327Z,9.55
2019-05-21T12:56:40.813Z,8.00
2019-05-21T12:57:41.556Z,12.23
2019-05-21T12:58:42.602Z,9.43
2019-05-21T12:59:43.601Z,10.13
2019-05-21T13:00:44.782Z,9.38
2019-05-21T13:01:45.792Z,8.50
2019-05-21T13:02:46.857Z,10.10
2019-05-21T13:03:47.936Z,9.15
2019-05-21T13:04:48.955Z,8.50
2019-05-21T13:05:49.972Z,9.55
2019-05-21T13:06:51.104Z,10.65
2019-05-21T13:07:52.111Z,7.87
2019-05-21T13:08:53.216Z,11.05
2019-05-21T13:09:54.207Z,9.53
2019-05-21T13:10:55.326Z,11.00
2019-05-21T13:11:56.336Z,10.53
2019-05-21T13:12:57.360Z,10.55
2019-05-21T13:13:58.379Z,11.20
2019-05-21T13:14:59.423Z,8.43
2019-05-21T13:16:00.444Z,10.55
2019-05-21T13:17:01.462Z,12.55
2019-05-21T13:18:03.275Z,11.43
2019-05-21T13:19:04.335Z,9.13
2019-05-21T13:20:07.322Z,8.58
2019-05-21T13:21:08.703Z,9.38
2019-05-21T13:22:09.711Z,10.05
2019-05-21T13:23:10.752Z,8.53
2019-05-21T13:24:11.849Z,8.43
2019-05-21T13:25:12.860Z,8.93
2019-05-21T13:26:13.976Z,8.90
2019-05-21T13:27:15.002Z,9.48